createdAt,value
2023-03-13T00:01:57.947Z,10.52
2023-03-13T00:06:50.663Z,10.27
2023-03-13T00:11:44.880Z,10.10
2023-03-13T00:16:39.797Z,10.50
2023-03-13T00:21:33.156Z,10.82
2023-03-13T00:26:27.314Z,12.05
2023-03-13T00:31:22.751Z,12.50
2023-03-13T00:36:18.117Z,13.18
2023-03-13T00:41:31.520Z,12.43
2023-03-13T00:46:26.670Z,12.73
2023-03-13T00:51:21.004Z,12.43
2023-03-13T00:56:15.301Z,11.15
2023-03-13T01:01:12.408Z,13.93
2023-03-13T01:06:08.685Z,10.57
2023-03-13T01:11:07.949Z,10.40
2023-03-13T01:16:15.427Z,10.77
2023-03-13T01:21:08.113Z,10.85
2023-03-13T01:26:01.392Z,12.23
2023-03-13T01:30:54.483Z,12.02
2023-03-13T01:35:47.632Z,11.77
2023-03-13T01:40:46.124Z,13.05
2023-03-13T01:46:04.801Z,12.65
2023-03-13T01:51:11.749Z,11.30
2023-03-13T01:56:06.795Z,11.98
2023-03-13T02:01:06.309Z,10.52
2023-03-13T02:06:00.637Z,11.65
2023-03-13T02:11:31.945Z,11.48
2023-03-13T02:16:25.731Z,11.18
2023-03-13T02:21:44.813Z,14.18
2023-03-13T02:26:45.590Z,11.50
2023-03-13T02:31:39.232Z,11.48
2023-03-13T02:36:32.662Z,10.88
2023-03-13T02:41:26.017Z,9.10
2023-03-13T02:46:22.000Z,11.52
2023-03-13T02:51:21.391Z,10.65
2023-03-13T02:56:15.920Z,14.27
2023-03-13T03:01:09.450Z,11.77
2023-03-13T03:06:07.715Z,14.07
2023-03-13T03:11:00.557Z,12.10
2023-03-13T03:15:54.693Z,13.13
2023-03-13T03:20:47.914Z,13.38
2023-03-13T03:25:41.096Z,12.45
2023-03-13T03:30:34.217Z,11.70
2023-03-13T03:35:27.492Z,12.18
2023-03-13T03:40:21.812Z,12.18
2023-03-13T03:45:15.210Z,11.68
2023-03-13T03:50:11.436Z,12.40
2023-03-13T03:55:13.898Z,12.77
2023-03-13T04:00:08.658Z,13.27
2023-03-13T04:05:06.715Z,12.70
2023-03-13T04:10:01.326Z,12.40
2023-03-13T04:15:01.253Z,12.18
2023-03-13T04:19:54.716Z,12.52
2023-03-13T04:24:47.461Z,12.55
2023-03-13T04:29:41.397Z,13.35
2023-03-13T04:35:10.446Z,12.65
2023-03-13T04:40:38.615Z,12.95
2023-03-13T04:45:50.524Z,12.45
2023-03-13T04:51:12.509Z,11.50
2023-03-13T04:56:41.800Z,11.98
2023-03-13T05:01:46.071Z,12.27
2023-03-13T05:06:58.895Z,12.57
2023-03-13T05:12:12.548Z,12.52
2023-03-13T05:17:27.739Z,13.05
2023-03-13T05:22:33.749Z,11.88
2023-03-13T05:33:19.646Z,13.00
2023-03-13T05:38:22.247Z,11.73
2023-03-13T05:43:32.620Z,12.65
2023-03-13T05:48:39.353Z,12.73
2023-03-13T05:53:53.082Z,12.50
2023-03-13T05:59:02.961Z,14.23
2023-03-13T06:04:15.110Z,14.18
2023-03-13T06:09:08.615Z,14.48
2023-03-13T06:14:01.225Z,12.77
2023-03-13T06:19:03.175Z,14.43
2023-03-13T06:23:58.279Z,15.43
2023-03-13T06:28:52.375Z,16.05
2023-03-13T06:33:45.744Z,16.15
2023-03-13T06:38:39.596Z,13.75
2023-03-13T06:43:32.945Z,12.65
2023-03-13T06:48:26.842Z,12.40
2023-03-13T06:53:20.812Z,12.05
2023-03-13T06:58:25.427Z,13.43
2023-03-13T07:03:24.616Z,13.07
2023-03-13T07:08:18.086Z,14.57
2023-03-13T07:13:11.076Z,13.35
2023-03-13T07:18:05.526Z,15.30
2023-03-13T07:22:59.908Z,14.35
2023-03-13T07:27:54.033Z,14.98
2023-03-13T07:32:47.046Z,14.40
2023-03-13T07:37:40.811Z,12.68
2023-03-13T07:42:34.671Z,13.10
2023-03-13T07:47:27.633Z,12.70
2023-03-13T07:52:20.837Z,12.35
2023-03-13T07:57:13.938Z,11.55
2023-03-13T08:02:08.790Z,11.68
2023-03-13T08:07:02.668Z,10.98
2023-03-13T08:11:56.666Z,13.50
2023-03-13T08:16:50.231Z,13.02
2023-03-13T08:21:42.869Z,13.23
2023-03-13T08:26:36.611Z,14.48
2023-03-13T08:31:50.052Z,15.23
2023-03-13T08:36:42.797Z,14.13
2023-03-13T08:41:37.080Z,13.38
2023-03-13T08:46:31.763Z,14.88
2023-03-13T08:51:26.568Z,15.73
2023-03-13T08:56:21.667Z,15.82
2023-03-13T09:01:15.339Z,17.23
2023-03-13T09:06:08.944Z,17.27
2023-03-13T09:11:04.755Z,16.65
2023-03-13T09:16:01.199Z,16.63
2023-03-13T09:20:53.897Z,15.57
2023-03-13T09:25:46.037Z,16.08
2023-03-13T09:30:39.633Z,15.73
2023-03-13T09:35:33.220Z,13.75
2023-03-13T09:40:26.798Z,15.18
2023-03-13T09:45:41.533Z,13.38
2023-03-13T09:50:37.279Z,12.30
2023-03-13T09:55:32.974Z,11.43
2023-03-13T10:00:34.078Z,13.10
2023-03-13T10:05:30.354Z,10.77
2023-03-13T10:10:40.511Z,11.93
2023-03-13T10:15:39.814Z,13.65
2023-03-13T10:20:37.132Z,11.05
2023-03-13T10:25:41.235Z,10.05
2023-03-13T10:30:36.136Z,8.55
2023-03-13T10:35:35.195Z,8.50
2023-03-13T10:40:29.336Z,8.95
2023-03-13T10:45:25.347Z,9.68
2023-03-13T10:50:22.080Z,11.57
2023-03-13T10:55:20.871Z,9.90
2023-03-13T11:00:28.122Z,11.13
2023-03-13T11:05:29.642Z,8.75
2023-03-13T11:10:25.887Z,8.32
2023-03-13T11:15:38.339Z,8.65
2023-03-13T11:20:37.525Z,9.30
2023-03-13T11:26:10.949Z,8.70
2023-03-13T11:31:05.549Z,8.95
2023-03-13T11:36:21.800Z,9.68
2023-03-13T11:41:29.904Z,9.85
2023-03-13T11:46:43.069Z,8.45
2023-03-13T11:51:53.163Z,9.75
2023-03-13T11:56:50.841Z,8.30
2023-03-13T12:01:54.071Z,8.32
2023-03-13T12:07:00.691Z,8.05
2023-03-13T12:11:59.813Z,7.80
2023-03-13T12:17:16.721Z,7.63
2023-03-13T12:22:21.358Z,8.90
2023-03-13T12:27:26.121Z,8.85
2023-03-13T12:32:20.668Z,8.02
2023-03-13T12:37:26.586Z,8.32
2023-03-13T12:42:58.471Z,8.27
2023-03-13T12:48:09.774Z,7.47
2023-03-13T12:53:19.780Z,7.22
2023-03-13T12:58:37.825Z,6.70
2023-03-13T13:04:03.191Z,7.38
2023-03-13T13:08:55.875Z,7.93
2023-03-13T13:13:49.134Z,7.57
2023-03-13T13:18:41.760Z,6.57
2023-03-13T13:23:35.158Z,8.68
2023-03-13T13:28:35.076Z,7.78
2023-03-13T13:33:31.666Z,7.80
2023-03-13T13:38:37.282Z,8.45
2023-03-13T13:43:40.940Z,7.43
2023-03-13T13:48:44.168Z,8.30
2023-03-13T13:53:45.923Z,8.50
2023-03-13T13:58:41.786Z,9.30
2023-03-13T14:03:42.879Z,8.98
2023-03-13T14:08:41.549Z,8.38
2023-03-13T14:13:34.880Z,8.43
2023-03-13T14:18:29.192Z,8.93
2023-03-13T14:24:00.736Z,8.43
2023-03-13T14:28:58.467Z,10.68
2023-03-13T14:33:51.284Z,9.52
2023-03-13T14:38:55.984Z,10.05
2023-03-13T14:43:56.262Z,9.40
2023-03-13T14:48:49.899Z,11.77
2023-03-13T14:53:54.360Z,9.30
2023-03-13T14:58:47.263Z,8.95
2023-03-13T15:04:19.305Z,8.45
2023-03-13T15:09:20.746Z,9.25
2023-03-13T15:14:38.610Z,8.50
2023-03-13T15:19:33.201Z,9.07
2023-03-13T15:24:31.959Z,12.18
2023-03-13T15:29:25.825Z,8.55
2023-03-13T15:34:26.022Z,9.88
2023-03-13T15:39:23.474Z,9.10
2023-03-13T15:44:16.706Z,9.23
2023-03-13T15:49:49.452Z,9.70
2023-03-13T15:55:02.469Z,11.98
2023-03-13T15:59:55.154Z,11.05
2023-03-13T16:04:48.782Z,9.50
2023-03-13T16:09:43.269Z,9.43
2023-03-13T16:14:37.515Z,10.45
2023-03-13T16:19:31.750Z,13.13
2023-03-13T16:24:25.578Z,11.73
2023-03-13T16:29:37.972Z,11.75
2023-03-13T16:35:10.388Z,11.75
2023-03-13T16:40:05.854Z,12.25
2023-03-13T16:45:19.582Z,11.88
2023-03-13T16:50:26.942Z,19.67
2023-03-13T16:55:21.782Z,17.48
2023-03-13T17:00:21.263Z,14.75
2023-03-13T17:05:15.988Z,16.10
2023-03-13T17:10:35.302Z,14.82
2023-03-13T17:15:30.801Z,17.60
2023-03-13T17:20:26.592Z,18.73
2023-03-13T17:25:20.193Z,15.23
2023-03-13T17:30:23.664Z,15.23
2023-03-13T17:35:17.880Z,14.40
2023-03-13T17:40:23.223Z,14.77
2023-03-13T17:45:16.941Z,16.70
2023-03-13T17:50:21.752Z,19.80
2023-03-13T17:55:15.023Z,16.90
2023-03-13T18:00:32.623Z,15.50
2023-03-13T18:05:25.292Z,17.10
2023-03-13T18:10:26.726Z,18.98
2023-03-13T18:15:21.142Z,18.55
2023-03-13T18:20:39.734Z,18.85
2023-03-13T18:25:33.803Z,17.55
2023-03-13T18:30:28.724Z,18.73
2023-03-13T18:35:22.229Z,20.77
2023-03-13T18:40:20.306Z,21.33
2023-03-13T18:45:21.859Z,23.90
2023-03-13T18:50:28.931Z,25.80
2023-03-13T18:55:22.538Z,24.08
2023-03-13T19:00:22.491Z,27.75
2023-03-13T19:05:16.197Z,27.20
2023-03-13T19:10:26.658Z,22.63
2023-03-13T19:15:19.734Z,22.08
2023-03-13T19:20:18.992Z,22.65
2023-03-13T19:25:13.296Z,24.13
2023-03-13T19:30:07.854Z,23.77
2023-03-13T19:35:01.979Z,22.75
2023-03-13T19:39:55.450Z,22.55
2023-03-13T19:44:48.696Z,19.92
2023-03-13T19:49:41.076Z,19.23
2023-03-13T19:54:34.929Z,19.45
2023-03-13T19:59:28.596Z,17.63
2023-03-13T20:04:21.862Z,17.33
2023-03-13T20:09:16.590Z,16.35
2023-03-13T20:14:09.408Z,14.52
2023-03-13T20:19:07.118Z,14.82
2023-03-13T20:24:00.301Z,16.10
2023-03-13T20:28:54.901Z,15.63
2023-03-13T20:33:49.130Z,13.25
2023-03-13T20:38:42.192Z,13.40
2023-03-13T20:43:35.391Z,12.57
2023-03-13T20:48:29.403Z,12.82
2023-03-13T20:53:24.312Z,13.55
2023-03-13T20:58:17.322Z,13.52
2023-03-13T21:03:10.777Z,15.70
2023-03-13T21:08:03.854Z,14.27
2023-03-13T21:12:58.181Z,13.43
2023-03-13T21:17:51.334Z,12.32
2023-03-13T21:22:45.090Z,13.65
2023-03-13T21:27:39.781Z,11.80
2023-03-13T21:32:32.881Z,12.18
2023-03-13T21:37:25.687Z,10.98
2023-03-13T21:42:20.292Z,12.18
2023-03-13T21:47:18.421Z,12.68
2023-03-13T21:52:11.634Z,12.57
2023-03-13T21:57:04.536Z,11.70
2023-03-13T22:01:59.080Z,12.45
2023-03-13T22:06:52.234Z,11.88
2023-03-13T22:11:45.928Z,11.45
2023-03-13T22:16:39.034Z,12.60
2023-03-13T22:21:32.432Z,11.88
2023-03-13T22:26:25.189Z,12.02
2023-03-13T22:31:19.351Z,10.95
2023-03-13T22:36:12.670Z,11.38
2023-03-13T22:41:08.277Z,10.40
2023-03-13T22:46:01.834Z,10.70
2023-03-13T22:51:08.069Z,9.23
2023-03-13T22:56:02.154Z,11.65
2023-03-13T23:00:55.189Z,10.55
2023-03-13T23:05:54.347Z,10.80
2023-03-13T23:10:47.865Z,11.10
2023-03-13T23:15:55.337Z,10.32
2023-03-13T23:20:49.887Z,10.17
2023-03-13T23:25:43.812Z,10.75
2023-03-13T23:30:37.542Z,9.30
2023-03-13T23:35:31.490Z,11.00
2023-03-13T23:40:24.410Z,11.65
2023-03-13T23:45:18.839Z,12.63
2023-03-13T23:50:16.327Z,11.77
2023-03-13T23:55:10.163Z,11.05
